sensor_id;sensor_type;location;lat;lon;timestamp;P1;durP1;ratioP1;P2;durP2;ratioP2
73872;SDS011;62206;47.568;9.364;2022-08-19T00:00:27;8.40;;;7.60;;
73872;SDS011;62206;47.568;9.364;2022-08-19T00:02:59;8.35;;;7.35;;
73872;SDS011;62206;47.568;9.364;2022-08-19T00:19:31;9.20;;;8.32;;
73872;SDS011;62206;47.568;9.364;2022-08-19T00:21:59;9.25;;;8.32;;
73872;SDS011;62206;47.568;9.364;2022-08-19T00:24:28;10.00;;;8.90;;
73872;SDS011;62206;47.568;9.364;2022-08-19T00:29:24;9.97;;;8.90;;
73872;SDS011;62206;47.568;9.364;2022-08-19T00:31:52;9.73;;;8.68;;
73872;SDS011;62206;47.568;9.364;2022-08-19T00:34:22;9.55;;;8.55;;
73872;SDS011;62206;47.568;9.364;2022-08-19T00:36:54;9.20;;;8.30;;
73872;SDS011;62206;47.568;9.364;2022-08-19T00:39:23;8.88;;;7.53;;
73872;SDS011;62206;47.568;9.364;2022-08-19T00:41:51;8.77;;;7.88;;
73872;SDS011;62206;47.568;9.364;2022-08-19T00:44:19;7.57;;;6.88;;
73872;SDS011;62206;47.568;9.364;2022-08-19T00:46:50;8.65;;;7.50;;
73872;SDS011;62206;47.568;9.364;2022-08-19T00:49:20;9.10;;;8.25;;
73872;SDS011;62206;47.568;9.364;2022-08-19T00:51:55;9.75;;;7.93;;
73872;SDS011;62206;47.568;9.364;2022-08-19T00:54:24;9.25;;;8.00;;
73872;SDS011;62206;47.568;9.364;2022-08-19T00:56:53;10.45;;;8.80;;
73872;SDS011;62206;47.568;9.364;2022-08-19T00:59:21;9.07;;;8.13;;
73872;SDS011;62206;47.568;9.364;2022-08-19T01:01:49;10.35;;;8.60;;
73872;SDS011;62206;47.568;9.364;2022-08-19T01:06:45;10.47;;;9.33;;
73872;SDS011;62206;47.568;9.364;2022-08-19T01:09:14;11.17;;;9.80;;
73872;SDS011;62206;47.568;9.364;2022-08-19T01:11:43;11.63;;;9.80;;
73872;SDS011;62206;47.568;9.364;2022-08-19T01:14:12;10.05;;;8.85;;
73872;SDS011;62206;47.568;9.364;2022-08-19T01:16:40;8.85;;;7.93;;
73872;SDS011;62206;47.568;9.364;2022-08-19T01:19:10;10.32;;;8.40;;
73872;SDS011;62206;47.568;9.364;2022-08-19T01:21:49;17.13;;;9.93;;
73872;SDS011;62206;47.568;9.364;2022-08-19T01:24:22;10.70;;;8.30;;
73872;SDS011;62206;47.568;9.364;2022-08-19T01:26:49;11.45;;;9.38;;
73872;SDS011;62206;47.568;9.364;2022-08-19T01:29:19;10.02;;;9.02;;
73872;SDS011;62206;47.568;9.364;2022-08-19T01:34:17;10.02;;;8.95;;
73872;SDS011;62206;47.568;9.364;2022-08-19T01:36:46;9.18;;;8.30;;
73872;SDS011;62206;47.568;9.364;2022-08-19T01:39:16;10.35;;;9.25;;
73872;SDS011;62206;47.568;9.364;2022-08-19T01:41:47;9.38;;;8.48;;
73872;SDS011;62206;47.568;9.364;2022-08-19T01:44:16;11.85;;;10.25;;
73872;SDS011;62206;47.568;9.364;2022-08-19T01:46:46;9.80;;;8.75;;
73872;SDS011;62206;47.568;9.364;2022-08-19T01:49:16;10.98;;;9.32;;
73872;SDS011;62206;47.568;9.364;2022-08-19T01:51:46;11.73;;;10.50;;
73872;SDS011;62206;47.568;9.364;2022-08-19T01:54:16;10.80;;;9.75;;
73872;SDS011;62206;47.568;9.364;2022-08-19T01:56:44;9.98;;;9.02;;
73872;SDS011;62206;47.568;9.364;2022-08-19T01:59:14;12.00;;;10.75;;
73872;SDS011;62206;47.568;9.364;2022-08-19T02:01:45;12.23;;;9.57;;
73872;SDS011;62206;47.568;9.364;2022-08-19T02:04:13;11.07;;;9.97;;
73872;SDS011;62206;47.568;9.364;2022-08-19T02:06:41;9.73;;;8.73;;
73872;SDS011;62206;47.568;9.364;2022-08-19T02:09:09;11.02;;;8.90;;
73872;SDS011;62206;47.568;9.364;2022-08-19T02:22:06;14.88;;;8.68;;
73872;SDS011;62206;47.568;9.364;2022-08-19T02:24:36;9.18;;;8.25;;
73872;SDS011;62206;47.568;9.364;2022-08-19T02:27:04;10.55;;;8.43;;
73872;SDS011;62206;47.568;9.364;2022-08-19T02:32:07;10.35;;;9.35;;
73872;SDS011;62206;47.568;9.364;2022-08-19T02:57:42;9.82;;;8.63;;
73872;SDS011;62206;47.568;9.364;2022-08-19T03:23:29;11.15;;;9.55;;
73872;SDS011;62206;47.568;9.364;2022-08-19T03:33:41;10.27;;;9.30;;
73872;SDS011;62206;47.568;9.364;2022-08-19T03:54:18;13.30;;;11.05;;
73872;SDS011;62206;47.568;9.364;2022-08-19T03:56:51;11.68;;;10.55;;
73872;SDS011;62206;47.568;9.364;2022-08-19T03:59:21;13.68;;;12.23;;
73872;SDS011;62206;47.568;9.364;2022-08-19T04:01:52;16.30;;;11.43;;
73872;SDS011;62206;47.568;9.364;2022-08-19T04:06:48;12.45;;;11.23;;
73872;SDS011;62206;47.568;9.364;2022-08-19T04:09:19;13.80;;;12.18;;
73872;SDS011;62206;47.568;9.364;2022-08-19T04:11:48;15.38;;;13.48;;
73872;SDS011;62206;47.568;9.364;2022-08-19T04:14:18;12.68;;;11.38;;
73872;SDS011;62206;47.568;9.364;2022-08-19T04:16:47;14.80;;;13.15;;
73872;SDS011;62206;47.568;9.364;2022-08-19T04:19:16;12.23;;;10.73;;
73872;SDS011;62206;47.568;9.364;2022-08-19T04:21:45;15.65;;;13.60;;
73872;SDS011;62206;47.568;9.364;2022-08-19T04:24:14;14.10;;;12.60;;
73872;SDS011;62206;47.568;9.364;2022-08-19T04:26:44;13.55;;;12.15;;
73872;SDS011;62206;47.568;9.364;2022-08-19T04:29:14;14.88;;;12.90;;
73872;SDS011;62206;47.568;9.364;2022-08-19T04:31:44;16.15;;;13.45;;
73872;SDS011;62206;47.568;9.364;2022-08-19T04:34:14;14.98;;;13.15;;
73872;SDS011;62206;47.568;9.364;2022-08-19T04:36:43;14.65;;;12.18;;
73872;SDS011;62206;47.568;9.364;2022-08-19T04:39:13;31.13;;;12.02;;
73872;SDS011;62206;47.568;9.364;2022-08-19T04:41:44;13.77;;;11.80;;
73872;SDS011;62206;47.568;9.364;2022-08-19T04:44:30;13.45;;;12.18;;
73872;SDS011;62206;47.568;9.364;2022-08-19T04:46:59;13.85;;;12.45;;
73872;SDS011;62206;47.568;9.364;2022-08-19T04:49:29;14.65;;;12.02;;
73872;SDS011;62206;47.568;9.364;2022-08-19T04:51:58;15.45;;;13.38;;
73872;SDS011;62206;47.568;9.364;2022-08-19T04:54:26;14.80;;;13.18;;
73872;SDS011;62206;47.568;9.364;2022-08-19T04:59:24;15.00;;;13.40;;
73872;SDS011;62206;47.568;9.364;2022-08-19T05:01:52;17.67;;;15.77;;
73872;SDS011;62206;47.568;9.364;2022-08-19T05:04:21;16.45;;;13.82;;
73872;SDS011;62206;47.568;9.364;2022-08-19T05:06:49;16.05;;;13.30;;
73872;SDS011;62206;47.568;9.364;2022-08-19T05:09:17;17.10;;;14.00;;
73872;SDS011;62206;47.568;9.364;2022-08-19T05:11:47;17.02;;;14.60;;
73872;SDS011;62206;47.568;9.364;2022-08-19T05:14:19;17.73;;;14.75;;
73872;SDS011;62206;47.568;9.364;2022-08-19T05:16:48;18.58;;;14.77;;
73872;SDS011;62206;47.568;9.364;2022-08-19T05:19:16;16.35;;;13.63;;
73872;SDS011;62206;47.568;9.364;2022-08-19T05:22:01;16.00;;;14.02;;
73872;SDS011;62206;47.568;9.364;2022-08-19T05:24:47;15.32;;;13.73;;
73872;SDS011;62206;47.568;9.364;2022-08-19T05:29:45;16.70;;;14.45;;
73872;SDS011;62206;47.568;9.364;2022-08-19T05:32:13;16.85;;;15.05;;
73872;SDS011;62206;47.568;9.364;2022-08-19T05:34:41;18.80;;;15.63;;
73872;SDS011;62206;47.568;9.364;2022-08-19T05:37:09;17.50;;;15.68;;
73872;SDS011;62206;47.568;9.364;2022-08-19T05:39:37;15.40;;;13.80;;
73872;SDS011;62206;47.568;9.364;2022-08-19T05:42:08;16.88;;;14.77;;
73872;SDS011;62206;47.568;9.364;2022-08-19T05:44:38;18.73;;;16.75;;
73872;SDS011;62206;47.568;9.364;2022-08-19T05:47:13;18.48;;;15.13;;
73872;SDS011;62206;47.568;9.364;2022-08-19T05:49:42;19.23;;;16.88;;
73872;SDS011;62206;47.568;9.364;2022-08-19T05:52:11;17.90;;;13.95;;
73872;SDS011;62206;47.568;9.364;2022-08-19T05:54:42;19.23;;;15.48;;
73872;SDS011;62206;47.568;9.364;2022-08-19T05:57:14;19.33;;;15.43;;
73872;SDS011;62206;47.568;9.364;2022-08-19T05:59:47;16.65;;;14.82;;
73872;SDS011;62206;47.568;9.364;2022-08-19T06:02:19;16.58;;;14.68;;
73872;SDS011;62206;47.568;9.364;2022-08-19T06:04:53;19.25;;;16.75;;
73872;SDS011;62206;47.568;9.364;2022-08-19T06:07:30;18.20;;;15.27;;
73872;SDS011;62206;47.568;9.364;2022-08-19T06:10:01;18.25;;;15.32;;
73872;SDS011;62206;47.568;9.364;2022-08-19T06:12:38;15.65;;;13.57;;
73872;SDS011;62206;47.568;9.364;2022-08-19T06:15:07;20.33;;;16.73;;
73872;SDS011;62206;47.568;9.364;2022-08-19T06:51:52;18.15;;;16.23;;
73872;SDS011;62206;47.568;9.364;2022-08-19T06:54:22;18.95;;;15.73;;
73872;SDS011;62206;47.568;9.364;2022-08-19T06:56:52;16.90;;;15.10;;
73872;SDS011;62206;47.568;9.364;2022-08-19T06:59:22;19.50;;;16.80;;
73872;SDS011;62206;47.568;9.364;2022-08-19T07:01:55;17.60;;;14.57;;
73872;SDS011;62206;47.568;9.364;2022-08-19T07:04:43;16.10;;;14.40;;
73872;SDS011;62206;47.568;9.364;2022-08-19T07:07:23;18.88;;;16.83;;
73872;SDS011;62206;47.568;9.364;2022-08-19T07:09:51;16.85;;;14.95;;
73872;SDS011;62206;47.568;9.364;2022-08-19T07:12:19;17.30;;;15.50;;
73872;SDS011;62206;47.568;9.364;2022-08-19T07:14:57;17.52;;;14.23;;
73872;SDS011;62206;47.568;9.364;2022-08-19T07:17:50;16.55;;;14.25;;
73872;SDS011;62206;47.568;9.364;2022-08-19T07:20:38;16.55;;;14.75;;
73872;SDS011;62206;47.568;9.364;2022-08-19T07:23:19;19.52;;;15.10;;
73872;SDS011;62206;47.568;9.364;2022-08-19T07:25:48;18.88;;;15.73;;
73872;SDS011;62206;47.568;9.364;2022-08-19T07:28:35;16.38;;;12.98;;
73872;SDS011;62206;47.568;9.364;2022-08-19T07:31:29;18.52;;;13.77;;
73872;SDS011;62206;47.568;9.364;2022-08-19T07:34:07;19.23;;;14.65;;
73872;SDS011;62206;47.568;9.364;2022-08-19T07:36:46;19.00;;;13.43;;
73872;SDS011;62206;47.568;9.364;2022-08-19T07:41:44;18.90;;;15.95;;
73872;SDS011;62206;47.568;9.364;2022-08-19T07:44:18;20.98;;;18.30;;
73872;SDS011;62206;47.568;9.364;2022-08-19T07:46:50;20.20;;;18.05;;
73872;SDS011;62206;47.568;9.364;2022-08-19T07:49:19;22.67;;;17.63;;
73872;SDS011;62206;47.568;9.364;2022-08-19T07:51:48;21.08;;;18.98;;
73872;SDS011;62206;47.568;9.364;2022-08-19T07:54:19;19.52;;;17.25;;
73872;SDS011;62206;47.568;9.364;2022-08-19T07:56:48;20.35;;;17.70;;
73872;SDS011;62206;47.568;9.364;2022-08-19T07:59:16;19.40;;;17.30;;
73872;SDS011;62206;47.568;9.364;2022-08-19T08:01:45;22.10;;;18.40;;
73872;SDS011;62206;47.568;9.364;2022-08-19T08:06:58;20.13;;;17.90;;
73872;SDS011;62206;47.568;9.364;2022-08-19T08:09:45;19.38;;;17.17;;
73872;SDS011;62206;47.568;9.364;2022-08-19T08:12:14;21.13;;;18.98;;
73872;SDS011;62206;47.568;9.364;2022-08-19T08:14:44;21.42;;;18.90;;
73872;SDS011;62206;47.568;9.364;2022-08-19T08:17:13;20.15;;;17.90;;
73872;SDS011;62206;47.568;9.364;2022-08-19T08:19:42;23.73;;;19.90;;
73872;SDS011;62206;47.568;9.364;2022-08-19T08:22:12;21.25;;;18.65;;
73872;SDS011;62206;47.568;9.364;2022-08-19T08:25:12;21.70;;;17.02;;
73872;SDS011;62206;47.568;9.364;2022-08-19T08:27:42;21.65;;;19.35;;
73872;SDS011;62206;47.568;9.364;2022-08-19T08:35:09;21.75;;;19.38;;
73872;SDS011;62206;47.568;9.364;2022-08-19T13:53:11;25.35;;;20.15;;
73872;SDS011;62206;47.568;9.364;2022-08-19T22:02:30;13.90;;;12.52;;
73872;SDS011;62206;47.568;9.364;2022-08-19T22:05:13;19.48;;;15.38;;
73872;SDS011;62206;47.568;9.364;2022-08-19T22:07:42;15.65;;;14.15;;
73872;SDS011;62206;47.568;9.364;2022-08-19T22:10:19;14.60;;;13.07;;
73872;SDS011;62206;47.568;9.364;2022-08-19T22:12:52;17.88;;;13.68;;
73872;SDS011;62206;47.568;9.364;2022-08-19T22:15:25;15.00;;;13.40;;
73872;SDS011;62206;47.568;9.364;2022-08-19T22:18:06;15.90;;;14.35;;
73872;SDS011;62206;47.568;9.364;2022-08-19T22:20:45;16.67;;;14.02;;
73872;SDS011;62206;47.568;9.364;2022-08-19T22:23:15;15.93;;;14.23;;
73872;SDS011;62206;47.568;9.364;2022-08-19T22:25:46;15.80;;;14.20;;
73872;SDS011;62206;47.568;9.364;2022-08-19T22:28:43;16.25;;;14.55;;
73872;SDS011;62206;47.568;9.364;2022-08-19T22:31:27;16.25;;;14.55;;
73872;SDS011;62206;47.568;9.364;2022-08-19T22:34:30;17.08;;;13.93;;
73872;SDS011;62206;47.568;9.364;2022-08-19T22:37:13;15.30;;;13.63;;
73872;SDS011;62206;47.568;9.364;2022-08-19T22:39:55;16.23;;;13.90;;
73872;SDS011;62206;47.568;9.364;2022-08-19T22:42:25;15.82;;;14.10;;
73872;SDS011;62206;47.568;9.364;2022-08-19T22:45:38;15.68;;;14.07;;
73872;SDS011;62206;47.568;9.364;2022-08-19T22:48:29;15.40;;;13.77;;
73872;SDS011;62206;47.568;9.364;2022-08-19T23:50:11;15.20;;;13.02;;
73872;SDS011;62206;47.568;9.364;2022-08-19T23:52:44;14.32;;;12.75;;
73872;SDS011;62206;47.568;9.364;2022-08-19T23:55:47;14.60;;;13.17;;
73872;SDS011;62206;47.568;9.364;2022-08-19T23:58:19;15.35;;;11.55;;
